Lingle, WY (82223)

11:04 PM MDT on August 20, 2014 (GMT -0600)
Torrington Main Street Market | Change Station
CLOSE
Current Station
Personal Weather Station
Location: Torrington, WY
Elevation: 4094 ft
Nearby Weather Stations

Elev 4094 ft 42.06 °N, 104.18 °W | Updated 5 minutes ago

Clear
Clear
66.4 °F
Feels Like 66.4 °F
N
0.0
Wind Variable Wind from WSW
Gusts 1.0 mph

Today
High -- | Low -- °F
--% Chance of Precip.
Yesterday
High -- | Low -- °F
Precip. -- in
6:10 AM 7:50 PM
Waning Crescent, 17% visible
Pressure 29.73 in
Visibility 10.0 miles
Clouds Clear
Dew Point 52 °F
Humidity 60%
Rainfall 0.00 in
Snow Depth Not available.
UV 0 out of 12
Pollen 9.40 out of 12
Air Quality Not available.
Flu Activity Not available.
METAR KTOR 210453Z AUTO 25004KT 10SM CLR 20/10 A2990 RMK AO2 SLP068 T02000100

More Conditions Fewer Conditions

Pressure 29.73 in
Visibility 10.0 miles
Clouds Clear
Dew Point 52 °F
Humidity 60%
Rainfall 0.00 in
Snow Depth Not available.
UV 0 out of 12
Pollen 9.40 out of 12
Air Quality Not available.
Flu Activity Not available.
METAR KTOR 210453Z AUTO 25004KT 10SM CLR 20/10 A2990 RMK AO2 SLP068 T02000100

More Conditions Fewer Conditions

10-Day Weather Forecast

Almanac

Astronomy

Aug. 20, 2014 Rise Set
Actual Time 6:10 AM MDT 7:50 PM MDT
Civil Twilight 5:40 AM MDT 8:19 PM MDT
Nautical Twilight 5:04 AM MDT 8:55 PM MDT
Astronomical Twilight 4:25 AM MDT 9:34 PM MDT
Moon 1:50 AM MDT (8/20) 4:39 PM MDT (8/20)
Length of Visible Light 14h 39m
Length of Day
13h 40m
Tomorrow will be 2m 35s shorter.
Waning Crescent, 17% of the Moon is Illuminated
Aug 21
Waning Crescent
Aug 25
New
Sep 2
First Quarter
Sep 8
Full
Sep 15
Last Quarter

Yesterday's Extremes

State Highs State Lows

Community

WunderPhotos

Upload Photos

1,745,857 photos uploaded!

Nearby

Snow Depth

Station Depth Elevation
Crow Creek 3 in 8330 ft
Reno Hill 0 in 8500 ft
Casper Mountain 0 in 7850 ft
Sand Lake 0 in 10050 ft
Brooklyn Lake 0 in 10220 ft

Earthquake Activity

City Distance Mag. Time & Date
No recent earthquake activity has been reported nearby.
Minimum magnitude displayed is 2.5.

Coastal Water Temperatures

Place Temperature
No Stations Reporting

Nearby Weather Stations